Time;durP1;ratioP1;P1;durP2;ratioP2;P2;SDS_P1;SDS_P2;PMS_P1;PMS_P2;Temp;Humidity;BMP_temperature;BMP_pressure;BME280_temperature;BME280_humidity;BME280_pressure;Samples;Min_cycle;Max_cycle;Signal;HPM_P1;HPM_P2
2021/12/17 00:04:27;;;;;;;11.60;5.83;;;7.50;99.90;;;;;;5091936;28;20411;-87
2021/12/17 00:06:52;;;;;;;10.17;5.83;;;7.50;99.90;;;;;;5091836;28;20399;-86
2021/12/17 00:09:18;;;;;;;17.80;7.70;;;7.50;99.90;;;;;;5090488;28;20576;-87
2021/12/17 00:11:44;;;;;;;10.73;6.17;;;7.40;99.90;;;;;;5092044;28;20240;-87
2021/12/17 00:14:11;;;;;;;11.23;5.30;;;7.40;99.90;;;;;;5089477;28;20172;-88
2021/12/17 00:16:40;;;;;;;11.20;6.60;;;7.40;99.90;;;;;;5091475;28;20185;-91
2021/12/17 00:19:36;;;;;;;10.50;5.80;;;7.40;99.90;;;;;;5091746;28;20424;-87
2021/12/17 00:46:31;;;;;;;7.57;3.50;;;7.20;99.90;;;;;;5075273;28;20431;-87
2021/12/17 00:50:03;;;;;;;8.00;3.23;;;7.30;99.90;;;;;;5079403;28;20919;-88
2021/12/17 00:52:34;;;;;;;10.23;4.77;;;7.30;99.90;;;;;;5094685;28;20950;-87
2021/12/17 00:55:00;;;;;;;9.60;4.93;;;7.20;99.90;;;;;;5094232;28;20493;-90
2021/12/17 00:57:30;;;;;;;11.43;4.77;;;7.30;99.90;;;;;;5095754;28;20414;-88
2021/12/17 00:59:57;;;;;;;9.60;5.07;;;7.20;99.90;;;;;;5074539;28;20472;-87
2021/12/17 01:02:27;;;;;;;10.80;4.40;;;7.20;99.90;;;;;;5080480;28;20427;-86
2021/12/17 01:04:56;;;;;;;10.63;4.77;;;7.20;99.90;;;;;;5095112;28;20427;-86
2021/12/17 01:07:24;;;;;;;12.53;4.77;;;7.20;99.90;;;;;;5108030;28;20461;-87
2021/12/17 01:09:51;;;;;;;9.83;4.13;;;7.20;99.90;;;;;;5115742;28;20782;-88
2021/12/17 01:12:18;;;;;;;8.07;4.20;;;7.20;99.90;;;;;;5114687;28;20410;-88
2021/12/17 01:14:45;;;;;;;12.63;5.07;;;7.20;99.90;;;;;;5113998;28;20462;-87
2021/12/17 01:17:12;;;;;;;8.63;4.50;;;7.20;99.90;;;;;;5115826;28;20422;-89
2021/12/17 01:25:32;;;;;;;11.20;4.07;;;7.20;99.90;;;;;;5115385;28;20398;-87
2021/12/17 01:35:21;;;;;;;7.07;3.60;;;7.20;99.90;;;;;;5115171;28;20449;-85
2021/12/17 01:36:23;;;;;;;6.40;2.90;;;7.30;99.90;;;;;;5075077;28;20478;-87
2021/12/17 01:44:14;;;;;;;6.63;3.63;;;7.30;99.90;;;;;;5086653;28;20778;-91
2021/12/17 01:46:42;;;;;;;8.60;3.70;;;7.30;99.90;;;;;;5074683;28;21031;-90
2021/12/17 02:00:27;;;;;;;9.20;4.00;;;7.30;99.90;;;;;;5094991;28;20472;-89
2021/12/17 02:02:56;;;;;;;12.77;6.17;;;7.30;99.90;;;;;;5093207;28;20503;-86
2021/12/17 02:05:22;;;;;;;10.00;6.30;;;7.30;99.90;;;;;;5093150;28;20496;-88
2021/12/17 02:07:52;;;;;;;11.70;6.33;;;7.30;99.90;;;;;;5094027;28;20412;-86
2021/12/17 02:21:30;;;;;;;9.90;4.87;;;7.30;99.90;;;;;;5073803;28;20761;-87
2021/12/17 02:31:46;;;;;;;8.60;4.47;;;7.20;99.90;;;;;;5077524;28;20177;-87
2021/12/17 02:34:38;;;;;;;10.63;4.50;;;7.20;99.90;;;;;;5092178;28;20482;-86
2021/12/17 02:37:08;;;;;;;10.10;4.50;;;7.20;99.90;;;;;;5086011;28;20587;-86
2021/12/17 02:45:30;;;;;;;8.10;4.13;;;7.20;99.90;;;;;;5093206;28;20504;-86
2021/12/17 02:45:32;;;;;;;6.83;2.50;;;7.20;99.90;;;;;;5092327;28;20515;-86
2021/12/17 02:48:17;;;;;;;6.20;3.57;;;7.30;99.90;;;;;;5093334;28;20464;-87
2021/12/17 02:51:01;;;;;;;5.60;3.17;;;7.20;99.90;;;;;;5092173;28;20433;-88
2021/12/17 02:53:29;;;;;;;8.07;3.97;;;7.20;99.90;;;;;;5092996;28;20412;-87
2021/12/17 02:56:01;;;;;;;5.30;3.50;;;7.20;99.90;;;;;;5091362;28;20476;-87
2021/12/17 02:58:29;;;;;;;10.17;3.10;;;7.30;99.90;;;;;;5091568;28;20428;-86
2021/12/17 03:00:57;;;;;;;4.60;2.47;;;7.30;99.90;;;;;;5091625;28;20460;-87
2021/12/17 03:03:26;;;;;;;4.97;3.33;;;7.30;99.90;;;;;;5093269;28;20464;-88
2021/12/17 03:05:52;;;;;;;6.60;2.50;;;7.30;99.90;;;;;;5093395;28;20424;-88
2021/12/17 03:08:18;;;;;;;6.17;2.93;;;7.30;99.90;;;;;;5091739;28;20428;-87
2021/12/17 03:10:47;;;;;;;3.23;1.17;;;7.30;99.90;;;;;;5093049;28;20424;-87
2021/12/17 03:13:16;;;;;;;5.43;2.57;;;7.30;99.90;;;;;;5092126;28;20429;-89
2021/12/17 03:15:54;;;;;;;3.57;2.50;;;7.30;99.90;;;;;;5092059;28;20472;-87
2021/12/17 03:18:53;;;;;;;4.00;2.53;;;7.30;99.90;;;;;;5092325;28;21150;-87
2021/12/17 03:23:58;;;;;;;4.57;2.20;;;7.30;99.90;;;;;;5092928;28;20755;-87
2021/12/17 03:26:26;;;;;;;4.80;2.47;;;7.30;99.90;;;;;;5092396;28;20416;-87
2021/12/17 03:28:55;;;;;;;5.50;2.67;;;7.30;99.90;;;;;;5090703;28;20182;-86
2021/12/17 03:31:23;;;;;;;4.17;2.20;;;7.30;99.90;;;;;;5090886;28;20785;-86
2021/12/17 03:33:50;;;;;;;5.13;3.43;;;7.30;99.90;;;;;;5085644;28;20488;-87
2021/12/17 03:36:18;;;;;;;7.47;4.83;;;7.30;99.90;;;;;;5072134;28;20469;-89
2021/12/17 03:38:46;;;;;;;9.60;4.37;;;7.30;99.90;;;;;;5072038;28;20521;-86
2021/12/17 03:43:46;;;;;;;6.40;4.47;;;7.20;99.90;;;;;;5091520;28;20416;-87
2021/12/17 03:46:11;;;;;;;8.50;4.60;;;7.20;99.90;;;;;;5090767;28;20965;-88
2021/12/17 03:48:39;;;;;;;6.20;3.83;;;7.20;99.90;;;;;;5090883;28;20452;-88
2021/12/17 03:51:12;;;;;;;8.77;4.40;;;7.20;99.90;;;;;;5090686;28;20180;-88
2021/12/17 03:53:39;;;;;;;8.20;4.77;;;7.20;99.90;;;;;;5092647;28;20420;-88
2021/12/17 03:56:05;;;;;;;7.17;3.50;;;7.20;99.90;;;;;;5091698;28;20462;-86
2021/12/17 03:58:31;;;;;;;8.23;4.07;;;7.20;99.90;;;;;;5090430;28;20438;-87
2021/12/17 04:00:57;;;;;;;8.30;4.03;;;7.20;99.90;;;;;;5097067;28;20520;-90
2021/12/17 04:03:22;;;;;;;6.10;4.00;;;7.20;99.90;;;;;;5111776;28;20176;-87
2021/12/17 04:05:48;;;;;;;6.23;3.70;;;7.20;99.90;;;;;;5114559;28;20194;-88
2021/12/17 04:08:14;;;;;;;8.37;4.77;;;7.20;99.90;;;;;;5113902;28;20173;-91
2021/12/17 04:10:47;;;;;;;8.23;4.47;;;7.20;99.90;;;;;;5094891;28;20564;-84
2021/12/17 04:13:25;;;;;;;8.77;3.87;;;7.20;99.90;;;;;;5094015;28;20572;-90
2021/12/17 04:15:57;;;;;;;9.73;3.80;;;7.20;99.90;;;;;;5094037;28;20472;-90
2021/12/17 04:18:23;;;;;;;5.90;3.93;;;7.20;99.90;;;;;;5094118;28;20393;-90
2021/12/17 04:20:49;;;;;;;10.50;4.07;;;7.30;99.90;;;;;;5094205;28;20414;-91
2021/12/17 04:23:15;;;;;;;8.27;3.80;;;7.20;99.90;;;;;;5094058;28;20407;-92
2021/12/17 04:25:41;;;;;;;8.27;3.73;;;7.20;99.90;;;;;;5105376;28;20180;-91
2021/12/17 04:28:07;;;;;;;7.40;3.47;;;7.10;99.90;;;;;;5113799;28;20406;-91
2021/12/17 04:30:33;;;;;;;5.43;3.00;;;7.20;99.90;;;;;;5114821;28;20259;-90
2021/12/17 04:32:58;;;;;;;4.60;2.30;;;7.20;99.90;;;;;;5101539;28;20193;-92
2021/12/17 04:35:24;;;;;;;6.00;2.23;;;7.20;99.90;;;;;;5093729;28;20209;-91
2021/12/17 04:37:50;;;;;;;5.37;2.87;;;7.20;99.90;;;;;;5110192;28;20661;-90
2021/12/17 04:40:18;;;;;;;4.10;1.77;;;7.20;99.90;;;;;;5114184;28;20451;-91
2021/12/17 04:42:57;;;;;;;9.17;3.87;;;7.20;99.90;;;;;;5112798;28;20502;-92
2021/12/17 04:45:24;;;;;;;7.40;2.93;;;7.20;99.90;;;;;;5114057;28;20761;-91
2021/12/17 04:58:46;;;;;;;6.50;3.73;;;7.20;99.90;;;;;;5114128;28;20444;-92
2021/12/17 05:01:14;;;;;;;7.77;2.50;;;7.10;99.90;;;;;;5114261;28;20415;-92
2021/12/17 05:03:40;;;;;;;6.37;2.80;;;7.20;99.90;;;;;;5113870;28;20185;-92
2021/12/17 05:06:06;;;;;;;4.43;2.80;;;7.20;99.90;;;;;;5114042;28;20407;-92
2021/12/17 05:08:32;;;;;;;8.20;3.77;;;7.10;99.90;;;;;;5118606;28;20422;-92
2021/12/17 05:21:36;;;;;;;4.10;2.30;;;7.10;99.90;;;;;;5117650;28;20443;-92
2021/12/17 05:24:02;;;;;;;4.60;2.13;;;7.00;99.90;;;;;;5117222;28;20627;-90
2021/12/17 05:26:28;;;;;;;3.17;2.07;;;7.00;99.90;;;;;;5117503;28;20420;-91
2021/12/17 05:28:55;;;;;;;3.53;1.93;;;7.00;99.90;;;;;;5116898;28;20171;-91
2021/12/17 05:31:21;;;;;;;2.93;1.83;;;7.00;99.90;;;;;;5116422;28;20618;-91
2021/12/17 05:33:48;;;;;;;5.83;2.47;;;7.00;99.90;;;;;;5097018;28;20414;-89
2021/12/17 05:36:14;;;;;;;3.73;2.00;;;7.00;99.90;;;;;;5092575;28;20472;-90
2021/12/17 05:38:40;;;;;;;3.90;1.73;;;7.00;99.90;;;;;;5076576;28;20513;-90
2021/12/17 05:41:05;;;;;;;4.97;2.30;;;7.00;99.90;;;;;;5076625;28;20217;-90
2021/12/17 05:43:36;;;;;;;3.13;1.67;;;7.00;99.90;;;;;;5076533;28;20179;-91
2021/12/17 05:46:08;;;;;;;5.50;2.53;;;7.00;99.90;;;;;;5076587;28;20567;-92
2021/12/17 05:48:34;;;;;;;3.93;2.30;;;7.00;99.90;;;;;;5076627;28;20401;-91
2021/12/17 05:51:02;;;;;;;5.67;2.10;;;7.00;99.90;;;;;;5076123;28;20420;-90
2021/12/17 05:53:31;;;;;;;5.33;2.70;;;7.00;99.90;;;;;;5076345;28;20900;-91
2021/12/17 05:55:57;;;;;;;3.33;1.93;;;6.90;99.90;;;;;;5076381;28;20465;-92
2021/12/17 05:58:23;;;;;;;3.97;2.07;;;7.00;99.90;;;;;;5075535;28;20404;-91
2021/12/17 06:00:49;;;;;;;5.70;3.00;;;7.00;99.90;;;;;;5076233;28;20425;-91
2021/12/17 06:03:17;;;;;;;6.20;2.53;;;7.00;99.90;;;;;;5076614;28;20405;-90
2021/12/17 06:05:43;;;;;;;4.87;2.50;;;6.90;99.90;;;;;;5076351;28;20409;-93
2021/12/17 06:08:09;;;;;;;5.50;3.03;;;7.00;99.90;;;;;;5076213;28;20419;-91
2021/12/17 06:10:34;;;;;;;4.57;2.93;;;7.00;99.90;;;;;;5075968;28;20176;-85
2021/12/17 06:13:00;;;;;;;4.57;2.47;;;7.10;99.90;;;;;;5084994;28;20179;-87
2021/12/17 06:15:25;;;;;;;4.87;2.17;;;6.90;99.90;;;;;;5095092;28;20692;-88
2021/12/17 06:17:52;;;;;;;4.23;2.20;;;7.00;99.90;;;;;;5095269;28;20180;-85
2021/12/17 06:20:20;;;;;;;3.93;1.03;;;6.90;99.90;;;;;;5093475;28;20257;-84
2021/12/17 06:22:49;;;;;;;4.00;1.90;;;6.90;99.90;;;;;;5091109;28;20434;-83
2021/12/17 06:25:16;;;;;;;3.47;1.30;;;6.90;99.90;;;;;;5074180;28;20420;-83
2021/12/17 06:27:42;;;;;;;3.70;1.40;;;6.90;99.90;;;;;;5075309;28;20416;-83
2021/12/17 06:30:13;;;;;;;4.17;1.40;;;6.80;99.90;;;;;;5075617;28;20897;-84
2021/12/17 06:32:39;;;;;;;1.80;0.60;;;6.80;99.90;;;;;;5083470;28;20824;-83
2021/12/17 06:35:06;;;;;;;1.77;0.83;;;6.70;99.90;;;;;;5074244;28;20471;-84
2021/12/17 06:37:31;;;;;;;4.17;1.40;;;6.70;99.90;;;;;;5076235;28;20426;-87
2021/12/17 06:39:58;;;;;;;2.90;1.70;;;6.70;99.90;;;;;;5094539;28;20421;-83
2021/12/17 06:42:25;;;;;;;4.30;1.30;;;6.70;99.90;;;;;;5079931;28;20180;-83
2021/12/17 06:44:52;;;;;;;2.87;1.30;;;6.70;99.90;;;;;;5074133;28;20416;-83
2021/12/17 06:47:30;;;;;;;4.87;1.73;;;6.70;99.90;;;;;;5072913;28;20470;-84
2021/12/17 07:01:05;;;;;;;4.30;2.30;;;6.80;99.90;;;;;;5094135;28;20422;-83
2021/12/17 07:11:55;;;;;;;6.20;2.70;;;6.80;99.90;;;;;;5094939;28;20415;-91
2021/12/17 07:17:14;;;;;;;5.40;3.00;;;6.70;99.90;;;;;;5095297;28;20427;-89
2021/12/17 07:32:00;;;;;;;4.77;2.50;;;6.70;99.90;;;;;;5075061;28;20388;-90
2021/12/17 07:33:16;;;;;;;4.27;1.87;;;6.70;99.90;;;;;;5074867;28;20509;-89
2021/12/17 07:35:48;;;;;;;4.30;1.70;;;6.70;99.90;;;;;;5073951;28;20477;-89
2021/12/17 07:40:59;;;;;;;3.33;1.93;;;6.70;99.90;;;;;;5074264;28;20424;-87
2021/12/17 07:43:35;;;;;;;7.37;2.83;;;6.70;99.90;;;;;;5072300;28;20412;-89
2021/12/17 07:46:04;;;;;;;3.40;2.00;;;6.70;99.90;;;;;;5074032;28;20844;-89
2021/12/17 07:48:30;;;;;;;2.93;0.87;;;6.70;99.90;;;;;;5073880;28;20530;-90
2021/12/17 07:50:56;;;;;;;4.43;2.10;;;6.70;99.90;;;;;;5079750;28;20429;-90
2021/12/17 07:53:22;;;;;;;4.67;1.43;;;6.70;99.90;;;;;;5094526;28;20181;-89
2021/12/17 07:55:48;;;;;;;6.37;2.40;;;6.60;99.90;;;;;;5094180;28;20474;-91
2021/12/17 07:58:13;;;;;;;6.70;2.70;;;6.60;99.90;;;;;;5094071;28;20415;-91
2021/12/17 08:00:40;;;;;;;6.97;3.47;;;6.60;99.90;;;;;;5094405;28;20205;-88
2021/12/17 08:03:05;;;;;;;5.20;3.33;;;6.60;99.90;;;;;;5094125;28;20161;-91
2021/12/17 08:05:31;;;;;;;8.93;4.30;;;6.60;99.90;;;;;;5094255;28;20435;-89
2021/12/17 08:07:57;;;;;;;5.03;3.20;;;6.60;99.90;;;;;;5093211;28;20608;-89
2021/12/17 08:10:22;;;;;;;5.10;3.20;;;6.60;99.90;;;;;;5093919;28;20177;-90
2021/12/17 08:12:48;;;;;;;8.10;3.07;;;6.60;99.90;;;;;;5092601;28;20173;-92
2021/12/17 08:15:14;;;;;;;6.83;2.67;;;6.60;99.90;;;;;;5093202;28;20669;-91
2021/12/17 08:23:58;;;;;;;4.90;2.83;;;6.60;99.90;;;;;;5093696;28;20456;-85
2021/12/17 08:26:16;;;;;;;7.00;3.97;;;6.60;99.90;;;;;;5093153;28;20505;-89
2021/12/17 08:31:26;;;;;;;7.47;4.50;;;6.70;99.90;;;;;;5094152;28;20903;-91
2021/12/17 08:33:51;;;;;;;6.87;3.63;;;6.70;99.90;;;;;;5092794;28;20421;-92
2021/12/17 08:36:18;;;;;;;7.00;3.57;;;6.70;99.90;;;;;;5093735;28;20201;-89
2021/12/17 08:38:45;;;;;;;10.03;4.57;;;6.70;99.90;;;;;;5080250;28;20222;-91
2021/12/17 08:41:12;;;;;;;13.20;5.13;;;6.70;99.90;;;;;;5073531;28;20424;-89
2021/12/17 08:43:38;;;;;;;6.37;3.83;;;6.80;99.90;;;;;;5087797;28;20932;-90
2021/12/17 08:46:04;;;;;;;9.20;4.93;;;6.80;99.90;;;;;;5097331;28;20421;-90
2021/12/17 08:48:30;;;;;;;8.43;4.20;;;6.80;99.90;;;;;;5097707;28;20428;-90
2021/12/17 08:50:56;;;;;;;8.47;4.40;;;6.80;99.90;;;;;;5096827;28;20180;-91
2021/12/17 08:53:22;;;;;;;7.43;3.70;;;6.90;99.90;;;;;;5096906;28;20415;-87
2021/12/17 08:55:47;;;;;;;9.00;3.87;;;6.90;99.90;;;;;;5096940;28;20466;-91
2021/12/17 08:58:14;;;;;;;5.70;2.80;;;6.80;99.90;;;;;;5096503;28;20213;-90
2021/12/17 09:00:44;;;;;;;7.50;2.97;;;6.80;99.90;;;;;;5096628;28;20166;-85
2021/12/17 09:03:10;;;;;;;10.10;3.60;;;6.80;99.90;;;;;;5096522;28;20415;-86
2021/12/17 09:05:38;;;;;;;5.73;2.63;;;6.80;99.90;;;;;;5096654;28;20419;-88
2021/12/17 09:08:05;;;;;;;7.63;2.80;;;6.80;99.90;;;;;;5096489;28;20400;-85
2021/12/17 09:10:31;;;;;;;11.87;5.27;;;6.90;99.90;;;;;;5096139;28;20472;-90
2021/12/17 09:12:56;;;;;;;8.80;4.50;;;6.90;99.90;;;;;;5082240;28;20749;-89
2021/12/17 09:15:22;;;;;;;13.50;5.00;;;7.00;99.90;;;;;;5075992;28;20471;-85
2021/12/17 09:17:48;;;;;;;11.40;5.67;;;7.00;99.90;;;;;;5074882;28;20257;-86
2021/12/17 09:20:14;;;;;;;14.37;5.97;;;6.90;99.90;;;;;;5076177;28;20167;-85
2021/12/17 09:22:40;;;;;;;8.00;4.80;;;6.90;99.90;;;;;;5076001;28;20420;-87
2021/12/17 09:25:07;;;;;;;9.47;4.73;;;6.90;99.90;;;;;;5076381;28;20421;-87
2021/12/17 09:27:33;;;;;;;6.70;3.90;;;6.80;99.90;;;;;;5075922;28;20467;-88
2021/12/17 09:29:59;;;;;;;10.40;5.37;;;6.80;99.90;;;;;;5076994;28;20449;-86
2021/12/17 09:32:24;;;;;;;7.50;4.73;;;6.90;99.90;;;;;;5086011;28;20484;-85
2021/12/17 09:34:50;;;;;;;8.60;4.90;;;6.90;99.90;;;;;;5086657;28;20206;-88
2021/12/17 09:37:17;;;;;;;7.80;5.60;;;6.90;99.90;;;;;;5075730;28;20181;-89
2021/12/17 09:39:43;;;;;;;13.73;6.53;;;6.90;99.90;;;;;;5076021;28;20742;-85
2021/12/17 09:42:10;;;;;;;12.07;5.67;;;6.90;99.90;;;;;;5082428;28;20432;-87
2021/12/17 09:44:36;;;;;;;9.03;2.93;;;6.90;99.90;;;;;;5096461;28;20408;-83
2021/12/17 09:47:02;;;;;;;2.63;1.27;;;6.90;99.90;;;;;;5096031;28;20905;-81
2021/12/17 09:49:28;;;;;;;2.60;0.93;;;6.90;99.90;;;;;;5096365;28;20457;-88
2021/12/17 09:51:56;;;;;;;4.40;1.87;;;7.00;99.90;;;;;;5092156;28;20426;-90
2021/12/17 09:54:22;;;;;;;4.10;1.43;;;7.00;99.90;;;;;;5074559;28;20168;-87
2021/12/17 09:56:47;;;;;;;3.40;1.30;;;7.00;99.90;;;;;;5075094;28;20483;-81
2021/12/17 09:59:13;;;;;;;4.20;1.57;;;7.00;99.90;;;;;;5074619;28;20186;-85
2021/12/17 10:01:42;;;;;;;4.50;2.50;;;7.00;99.90;;;;;;5074814;28;20262;-86
2021/12/17 10:04:42;;;;;;;5.20;2.70;;;7.00;99.90;;;;;;5074815;28;20413;-85
2021/12/17 10:07:28;;;;;;;4.43;2.20;;;7.10;99.90;;;;;;5041925;28;20511;-87
2021/12/17 10:09:57;;;;;;;6.40;2.67;;;7.00;99.90;;;;;;5075591;28;20424;-84
2021/12/17 10:12:26;;;;;;;5.23;2.10;;;7.00;99.90;;;;;;5074802;28;20459;-87
2021/12/17 10:15:14;;;;;;;5.57;3.17;;;7.10;99.90;;;;;;5075047;28;20861;-88
2021/12/17 10:18:01;;;;;;;3.60;1.57;;;7.10;99.90;;;;;;5074842;28;20412;-86
2021/12/17 10:20:33;;;;;;;5.27;3.20;;;7.00;99.90;;;;;;5081377;28;20495;-82
2021/12/17 10:23:04;;;;;;;7.33;3.97;;;7.00;99.90;;;;;;5095496;28;20883;-88
2021/12/17 10:25:31;;;;;;;12.40;6.10;;;6.90;99.90;;;;;;5092968;28;20452;-83
2021/12/17 10:27:59;;;;;;;7.23;4.60;;;6.90;99.90;;;;;;5094639;28;20408;-84
2021/12/17 10:30:26;;;;;;;6.70;4.33;;;6.80;99.90;;;;;;5094825;28;20431;-86
2021/12/17 10:32:55;;;;;;;8.40;5.27;;;6.80;99.90;;;;;;5088782;28;20769;-85
2021/12/17 10:35:24;;;;;;;9.03;5.10;;;6.80;99.90;;;;;;5087620;28;20475;-82
2021/12/17 10:38:00;;;;;;;10.33;4.77;;;6.70;99.90;;;;;;5090312;28;20519;-83
2021/12/17 10:40:48;;;;;;;9.73;5.53;;;6.80;99.90;;;;;;5094166;28;20453;-81
2021/12/17 10:43:22;;;;;;;9.57;6.03;;;6.80;99.90;;;;;;5094014;28;20427;-81
2021/12/17 10:46:07;;;;;;;10.20;7.20;;;6.80;99.90;;;;;;5089125;28;20919;-85
2021/12/17 10:51:16;;;;;;;12.33;6.97;;;6.90;99.90;;;;;;5112610;28;20419;-87
2021/12/17 10:53:46;;;;;;;9.77;6.53;;;6.90;99.90;;;;;;5115207;28;20403;-84
2021/12/17 10:56:16;;;;;;;8.10;5.20;;;6.90;99.90;;;;;;5115344;28;20463;-89
2021/12/17 10:58:58;;;;;;;9.30;5.50;;;7.00;99.90;;;;;;5114524;28;20455;-83
2021/12/17 11:01:35;;;;;;;13.10;7.87;;;6.90;99.90;;;;;;5114649;28;20465;-83
2021/12/17 11:04:08;;;;;;;16.40;8.50;;;7.00;99.90;;;;;;5114518;28;20422;-85
2021/12/17 11:06:48;;;;;;;11.63;7.97;;;7.00;99.90;;;;;;5114520;28;20403;-88
2021/12/17 11:09:47;;;;;;;12.93;7.60;;;7.00;99.90;;;;;;5114901;28;20444;-87
2021/12/17 11:12:27;;;;;;;13.20;7.57;;;7.00;99.90;;;;;;5113302;28;20510;-88
2021/12/17 11:14:56;;;;;;;9.83;6.33;;;7.10;99.90;;;;;;5114632;28;20558;-89
2021/12/17 11:17:22;;;;;;;9.97;6.50;;;7.10;99.90;;;;;;5114969;28;20414;-87
2021/12/17 11:19:51;;;;;;;7.90;4.47;;;7.10;99.90;;;;;;5113330;28;20432;-83
2021/12/17 11:22:17;;;;;;;7.00;4.97;;;7.20;99.90;;;;;;5114821;28;20161;-86
2021/12/17 11:24:43;;;;;;;8.37;5.43;;;7.20;99.90;;;;;;5114965;28;20462;-88
2021/12/17 11:27:09;;;;;;;8.93;5.50;;;7.10;99.90;;;;;;5113233;28;20411;-86
2021/12/17 11:29:34;;;;;;;7.97;5.23;;;7.20;99.90;;;;;;5114488;28;20947;-82
2021/12/17 11:32:01;;;;;;;11.57;5.67;;;7.10;99.90;;;;;;5114472;28;20170;-90
2021/12/17 11:34:30;;;;;;;9.10;5.33;;;7.10;99.90;;;;;;5114460;28;20165;-89
2021/12/17 11:36:58;;;;;;;11.50;7.37;;;7.20;99.90;;;;;;5113451;28;20480;-89
2021/12/17 11:39:30;;;;;;;12.63;8.20;;;7.10;99.90;;;;;;5113482;28;20460;-80
2021/12/17 11:42:09;;;;;;;19.07;9.10;;;7.20;99.90;;;;;;5111410;28;20464;-88
2021/12/17 11:44:42;;;;;;;14.67;9.70;;;7.20;99.90;;;;;;5115022;28;20497;-90
2021/12/17 11:47:11;;;;;;;13.80;8.63;;;7.20;99.90;;;;;;5114807;28;20412;-90
2021/12/17 11:49:49;;;;;;;14.57;9.27;;;7.40;99.90;;;;;;5115268;28;20404;-90
2021/12/17 11:52:34;;;;;;;11.67;7.60;;;7.30;99.90;;;;;;5115076;28;20455;-91
2021/12/17 11:55:30;;;;;;;9.87;7.37;;;7.20;99.90;;;;;;5090947;28;20455;-88
2021/12/17 11:58:03;;;;;;;10.23;5.93;;;7.30;99.90;;;;;;5079552;28;20489;-89
2021/12/17 12:00:47;;;;;;;12.50;8.40;;;7.20;99.90;;;;;;5118530;28;20407;-89
2021/12/17 12:03:21;;;;;;;10.50;7.37;;;7.20;99.90;;;;;;5112242;28;20896;-82
2021/12/17 12:05:52;;;;;;;11.90;7.03;;;7.20;99.90;;;;;;5075880;28;20439;-86
2021/12/17 12:08:26;;;;;;;14.70;7.20;;;7.20;99.90;;;;;;5093184;28;20420;-83
2021/12/17 12:11:17;;;;;;;9.10;6.20;;;7.20;99.90;;;;;;5088135;28;20428;-82
2021/12/17 12:13:48;;;;;;;8.47;5.47;;;7.20;99.90;;;;;;5069808;28;20479;-80
2021/12/17 12:16:25;;;;;;;7.70;6.33;;;7.30;99.90;;;;;;5071260;28;20951;-81
2021/12/17 12:19:05;;;;;;;11.77;5.80;;;7.30;99.90;;;;;;5090182;28;20424;-82
2021/12/17 12:21:37;;;;;;;7.80;4.87;;;7.30;99.90;;;;;;5097327;28;20407;-81
2021/12/17 12:24:13;;;;;;;7.53;4.20;;;7.30;99.90;;;;;;5093388;28;20423;-85
2021/12/17 12:26:43;;;;;;;11.10;4.70;;;7.30;99.90;;;;;;5093694;28;20424;-85
2021/12/17 12:29:23;;;;;;;7.57;4.27;;;7.30;99.90;;;;;;5095671;28;20781;-91
2021/12/17 12:31:49;;;;;;;5.20;3.27;;;7.30;99.90;;;;;;5098311;28;20416;-90
2021/12/17 12:34:32;;;;;;;7.43;4.70;;;7.30;99.90;;;;;;5097817;28;21013;-91
2021/12/17 12:37:08;;;;;;;7.83;5.17;;;7.40;99.90;;;;;;5077709;28;20174;-87
2021/12/17 12:39:38;;;;;;;8.80;5.23;;;7.30;99.90;;;;;;5076784;28;20461;-87
2021/12/17 12:42:12;;;;;;;9.27;5.57;;;7.40;99.90;;;;;;5091223;28;20428;-86
2021/12/17 12:44:44;;;;;;;11.50;6.33;;;7.40;99.90;;;;;;5083781;28;20520;-85
2021/12/17 12:47:12;;;;;;;10.33;6.67;;;7.40;99.90;;;;;;5084146;28;20427;-86
2021/12/17 12:49:48;;;;;;;8.23;6.33;;;7.40;99.90;;;;;;5081890;28;20416;-85
2021/12/17 12:52:40;;;;;;;9.30;5.53;;;7.30;99.90;;;;;;5074670;28;20435;-86
2021/12/17 12:55:25;;;;;;;11.80;4.80;;;7.30;99.90;;;;;;5075157;28;20500;-86
2021/12/17 12:57:54;;;;;;;7.83;5.30;;;7.40;99.90;;;;;;5075402;28;20495;-88
2021/12/17 13:00:22;;;;;;;11.40;4.63;;;7.40;99.90;;;;;;5075629;28;20938;-88
2021/12/17 13:02:55;;;;;;;6.70;4.50;;;7.40;99.90;;;;;;5075417;28;20418;-88
2021/12/17 13:05:21;;;;;;;8.10;5.13;;;7.40;99.90;;;;;;5091630;28;20422;-88
2021/12/17 13:07:50;;;;;;;9.10;4.93;;;7.40;99.90;;;;;;5076177;28;20913;-91
2021/12/17 13:10:27;;;;;;;9.90;5.50;;;7.40;99.90;;;;;;5074126;28;20447;-88
2021/12/17 13:13:37;;;;;;;7.63;4.87;;;7.40;99.90;;;;;;5075390;28;20428;-89
2021/12/17 13:16:20;;;;;;;10.87;5.80;;;7.50;99.90;;;;;;5074060;28;20487;-87
2021/12/17 13:21:42;;;;;;;11.83;6.10;;;7.40;99.90;;;;;;5077230;28;20421;-92
2021/12/17 13:24:18;;;;;;;13.03;7.33;;;7.50;99.90;;;;;;5092204;28;20425;-93
2021/12/17 13:26:55;;;;;;;12.93;7.50;;;7.50;99.90;;;;;;5074964;28;20424;-88
2021/12/17 13:29:33;;;;;;;13.17;7.80;;;7.50;99.90;;;;;;5072700;28;20437;-88
2021/12/17 13:32:12;;;;;;;14.60;8.80;;;7.50;99.90;;;;;;5076021;28;20458;-91
2021/12/17 13:34:42;;;;;;;18.63;8.97;;;7.50;99.90;;;;;;5076778;28;20448;-92
2021/12/17 13:37:21;;;;;;;17.37;8.30;;;7.50;99.90;;;;;;5074585;28;20937;-90
2021/12/17 13:39:54;;;;;;;12.50;8.40;;;7.50;99.90;;;;;;5075722;28;20480;-89
2021/12/17 13:42:46;;;;;;;11.30;8.37;;;7.50;99.90;;;;;;5074665;28;20431;-87
2021/12/17 13:45:17;;;;;;;14.60;7.93;;;7.50;99.90;;;;;;5073892;28;20517;-88
2021/12/17 13:47:53;;;;;;;13.57;7.77;;;7.50;99.90;;;;;;5075852;28;20441;-89
2021/12/17 13:50:31;;;;;;;14.33;6.90;;;7.50;99.90;;;;;;5075862;28;20403;-89
2021/12/17 13:52:59;;;;;;;12.70;6.13;;;7.50;99.90;;;;;;5075515;28;20428;-86
2021/12/17 13:55:28;;;;;;;10.50;6.33;;;7.50;99.90;;;;;;5094720;28;20464;-89
2021/12/17 13:57:54;;;;;;;14.87;5.60;;;7.50;99.90;;;;;;5095264;28;20404;-89
2021/12/17 14:00:39;;;;;;;11.43;6.10;;;7.50;99.90;;;;;;5095970;28;20843;-92
2021/12/17 14:03:09;;;;;;;9.70;5.90;;;7.40;99.90;;;;;;5098562;28;20408;-94
2021/12/17 14:05:45;;;;;;;11.77;6.13;;;7.40;99.90;;;;;;5100088;28;20453;-92
2021/12/17 14:08:13;;;;;;;8.27;5.00;;;7.50;99.90;;;;;;5095586;28;20798;-87
2021/12/17 14:10:40;;;;;;;10.40;5.90;;;7.40;99.90;;;;;;5092618;28;20460;-89
2021/12/17 14:13:18;;;;;;;8.83;5.13;;;7.40;99.90;;;;;;5073645;28;20424;-90
2021/12/17 14:15:45;;;;;;;14.10;6.73;;;7.50;99.90;;;;;;5075596;28;20460;-91
2021/12/17 14:18:15;;;;;;;9.13;6.10;;;7.50;99.90;;;;;;5075420;28;20405;-90
2021/12/17 14:20:43;;;;;;;6.73;3.40;;;7.50;99.90;;;;;;5074589;28;20436;-91
2021/12/17 14:23:16;;;;;;;6.70;3.40;;;7.40;99.90;;;;;;5074917;28;20425;-89
2021/12/17 14:25:47;;;;;;;5.00;3.20;;;7.50;99.90;;;;;;5072693;28;20421;-90
2021/12/17 14:28:17;;;;;;;7.70;3.83;;;7.50;99.90;;;;;;5073913;28;20630;-91
2021/12/17 14:30:54;;;;;;;7.20;3.90;;;7.50;99.90;;;;;;5073033;28;20849;-92
2021/12/17 14:33:24;;;;;;;7.97;3.40;;;7.50;99.90;;;;;;5073768;28;20497;-89
2021/12/17 14:35:59;;;;;;;5.30;2.90;;;7.50;99.90;;;;;;5074259;28;20467;-89
2021/12/17 14:38:49;;;;;;;7.13;4.17;;;7.50;99.90;;;;;;5073722;28;20467;-88
2021/12/17 14:41:26;;;;;;;5.00;2.30;;;7.50;99.90;;;;;;5071868;28;20428;-90
2021/12/17 14:43:56;;;;;;;9.87;4.63;;;7.60;99.90;;;;;;5074052;28;20916;-89
2021/12/17 14:46:29;;;;;;;10.93;4.07;;;7.60;99.90;;;;;;5072163;28;20435;-89
2021/12/17 14:57:22;;;;;;;7.17;3.37;;;7.60;99.90;;;;;;5094808;28;20431;-88
2021/12/17 15:02:53;;;;;;;8.43;4.50;;;7.60;99.90;;;;;;5091491;28;20760;-87
2021/12/17 15:05:24;;;;;;;8.80;3.77;;;7.60;99.90;;;;;;5099652;28;20440;-85
2021/12/17 15:07:51;;;;;;;7.07;3.90;;;7.60;99.90;;;;;;5093091;28;20472;-88
2021/12/17 15:10:19;;;;;;;5.90;4.07;;;7.70;99.90;;;;;;5092997;28;20881;-89
2021/12/17 15:12:46;;;;;;;7.33;4.53;;;7.70;99.90;;;;;;5091001;28;20450;-86
2021/12/17 15:15:18;;;;;;;4.83;3.30;;;7.70;99.90;;;;;;5092709;28;21026;-89
2021/12/17 15:17:44;;;;;;;6.57;2.87;;;7.70;99.90;;;;;;5092954;28;20410;-88
2021/12/17 15:20:11;;;;;;;5.30;3.43;;;7.70;99.90;;;;;;5093024;28;20486;-88
2021/12/17 15:22:37;;;;;;;7.80;3.20;;;7.80;99.90;;;;;;5093292;28;20776;-82
2021/12/17 15:25:05;;;;;;;4.27;2.30;;;7.80;99.90;;;;;;5092858;28;20470;-82
2021/12/17 15:27:33;;;;;;;7.03;2.67;;;7.80;99.90;;;;;;5092608;28;20424;-82
2021/12/17 15:30:00;;;;;;;8.87;4.27;;;7.80;99.90;;;;;;5093152;28;20408;-81
2021/12/17 15:32:26;;;;;;;7.40;3.87;;;7.80;99.90;;;;;;5093088;28;20417;-82
2021/12/17 15:34:52;;;;;;;7.63;3.87;;;7.80;99.90;;;;;;5092919;28;20597;-82
2021/12/17 15:37:18;;;;;;;7.03;3.70;;;7.80;99.90;;;;;;5092974;28;21028;-82
2021/12/17 15:39:43;;;;;;;5.67;3.87;;;7.90;99.90;;;;;;5108599;28;20495;-82
2021/12/17 15:42:10;;;;;;;5.83;3.63;;;7.90;99.90;;;;;;5092716;28;20538;-82
2021/12/17 15:44:36;;;;;;;7.57;4.30;;;7.80;99.90;;;;;;5093045;28;20182;-82
2021/12/17 15:47:05;;;;;;;8.03;4.40;;;7.90;99.90;;;;;;5092878;28;20799;-81
2021/12/17 15:49:31;;;;;;;8.20;4.87;;;7.90;99.90;;;;;;5092903;28;20416;-82
2021/12/17 15:51:57;;;;;;;7.90;5.37;;;8.00;99.90;;;;;;5092330;28;20622;-81
2021/12/17 15:54:22;;;;;;;9.80;5.23;;;8.00;99.90;;;;;;5092742;28;20829;-82
2021/12/17 15:56:49;;;;;;;7.53;4.10;;;8.00;99.90;;;;;;5092486;28;20228;-82
2021/12/17 15:59:15;;;;;;;8.53;5.37;;;8.00;99.90;;;;;;5093045;28;20646;-82